createdAt,value
2018-01-21T00:00:06.234Z,53.43
2018-01-21T00:00:37.138Z,53.19
2018-01-21T00:01:08.038Z,53.26
2018-01-21T00:01:38.950Z,53.20
2018-01-21T00:02:09.850Z,53.36
2018-01-21T00:02:40.758Z,53.25
2018-01-21T00:03:11.666Z,53.25
2018-01-21T00:03:42.614Z,53.33
2018-01-21T00:04:13.514Z,53.38
2018-01-21T00:04:44.410Z,53.29
2018-01-21T00:05:15.302Z,53.36
2018-01-21T00:05:46.201Z,53.49
2018-01-21T00:06:17.103Z,53.42
2018-01-21T00:06:48.021Z,53.29
2018-01-21T00:07:18.930Z,53.44
2018-01-21T00:07:49.829Z,53.63
2018-01-21T00:08:20.742Z,53.49
2018-01-21T00:08:51.689Z,53.32
2018-01-21T00:09:22.590Z,53.49
2018-01-21T00:09:53.481Z,53.48
2018-01-21T00:10:24.382Z,53.42
2018-01-21T00:10:55.282Z,53.36
2018-01-21T00:11:26.181Z,53.46
2018-01-21T00:11:57.082Z,53.66
2018-01-21T00:12:27.989Z,53.52
2018-01-21T00:12:58.890Z,53.63
2018-01-21T00:13:29.794Z,53.51
2018-01-21T00:14:00.729Z,53.59
2018-01-21T00:14:31.673Z,53.55
2018-01-21T00:15:02.567Z,53.46
2018-01-21T00:15:33.469Z,53.53
2018-01-21T00:16:04.366Z,53.55
2018-01-21T00:16:35.269Z,53.52
2018-01-21T00:17:06.182Z,53.54
2018-01-21T00:17:37.081Z,53.63
2018-01-21T00:18:07.985Z,53.57
2018-01-21T00:18:38.891Z,53.48
2018-01-21T00:19:09.809Z,53.52
2018-01-21T00:19:40.774Z,53.52
2018-01-21T00:20:11.673Z,53.72
2018-01-21T00:20:42.574Z,53.52
2018-01-21T00:21:13.478Z,53.52
2018-01-21T00:21:44.378Z,53.74
2018-01-21T00:22:15.286Z,53.53
2018-01-21T00:22:46.186Z,53.57
2018-01-21T00:23:17.089Z,53.54
2018-01-21T00:23:47.990Z,53.69
2018-01-21T00:24:18.890Z,53.62
2018-01-21T00:24:49.853Z,53.59
2018-01-21T00:25:20.750Z,53.55
2018-01-21T00:25:51.654Z,53.53
2018-01-21T00:26:22.554Z,53.59
2018-01-21T00:26:53.463Z,53.44
2018-01-21T00:27:24.367Z,53.51
2018-01-21T00:27:55.261Z,53.83
2018-01-21T00:28:26.158Z,53.76
2018-01-21T00:28:57.061Z,53.80
2018-01-21T00:29:27.953Z,53.82
2018-01-21T00:29:58.907Z,53.80
2018-01-21T00:30:29.850Z,53.78
2018-01-21T00:31:00.757Z,53.94
2018-01-21T00:31:31.661Z,53.92
2018-01-21T00:32:02.558Z,53.77
2018-01-21T00:32:33.505Z,53.87
2018-01-21T00:33:04.405Z,53.87
2018-01-21T00:33:35.302Z,53.90
2018-01-21T00:34:06.205Z,53.82
2018-01-21T00:34:37.102Z,53.95
2018-01-21T00:35:07.998Z,53.83
2018-01-21T00:35:38.941Z,53.94
2018-01-21T00:36:09.846Z,53.85
2018-01-21T00:36:40.754Z,53.82
2018-01-21T00:37:11.653Z,53.81
2018-01-21T00:37:42.558Z,53.81
2018-01-21T00:38:13.457Z,53.94
2018-01-21T00:38:44.354Z,53.95
2018-01-21T00:39:15.258Z,53.94
2018-01-21T00:39:46.146Z,53.80
2018-01-21T00:40:17.058Z,54.02
2018-01-21T00:40:48.002Z,53.92
2018-01-21T00:41:18.902Z,54.06
2018-01-21T00:41:49.797Z,54.04
2018-01-21T00:42:20.698Z,53.98
2018-01-21T00:42:51.645Z,54.22
2018-01-21T00:43:22.550Z,54.26
2018-01-21T00:43:53.454Z,54.11
2018-01-21T00:44:24.349Z,54.10
2018-01-21T00:44:55.257Z,54.30
2018-01-21T00:45:26.150Z,54.22
2018-01-21T00:45:57.045Z,54.29
2018-01-21T00:46:27.945Z,54.38
2018-01-21T00:46:58.849Z,54.30
2018-01-21T00:47:29.749Z,54.39
2018-01-21T00:48:00.689Z,54.80
2018-01-21T00:48:31.586Z,54.62
2018-01-21T00:49:02.485Z,55.07
2018-01-21T00:49:33.383Z,54.67
2018-01-21T00:50:04.286Z,55.26
2018-01-21T00:50:35.181Z,54.95
2018-01-21T00:51:06.114Z,55.05
2018-01-21T00:51:37.061Z,55.03
2018-01-21T00:52:08.000Z,54.72
2018-01-21T00:52:38.961Z,55.14
2018-01-21T00:53:09.841Z,55.18
2018-01-21T00:53:40.733Z,55.17
2018-01-21T00:54:11.634Z,55.39
2018-01-21T00:54:42.531Z,55.09
2018-01-21T00:55:13.434Z,55.28
2018-01-21T00:55:44.321Z,55.90
2018-01-21T00:56:15.216Z,55.27
2018-01-21T00:56:46.109Z,55.01
2018-01-21T00:57:17.061Z,55.29
2018-01-21T00:57:47.958Z,55.35
2018-01-21T00:58:18.877Z,55.26
2018-01-21T00:58:49.769Z,55.16
2018-01-21T00:59:20.674Z,55.19
2018-01-21T00:59:51.574Z,54.60
2018-01-21T01:00:22.469Z,54.52
2018-01-21T01:00:53.371Z,54.74
2018-01-21T01:01:24.270Z,54.82
2018-01-21T01:01:55.178Z,54.93
2018-01-21T01:02:26.116Z,54.81
2018-01-21T01:02:57.071Z,54.73
2018-01-21T01:03:27.969Z,54.94
2018-01-21T01:03:58.878Z,55.01
2018-01-21T01:04:29.820Z,55.01
2018-01-21T01:05:00.719Z,55.41
2018-01-21T01:05:31.621Z,55.27
2018-01-21T01:06:02.526Z,55.23
2018-01-21T01:06:33.417Z,55.20
2018-01-21T01:07:04.318Z,55.34
2018-01-21T01:07:35.226Z,55.27
2018-01-21T01:08:06.170Z,55.15
2018-01-21T01:08:37.068Z,55.00
2018-01-21T01:09:07.962Z,55.40
2018-01-21T01:09:38.849Z,55.38
2018-01-21T01:10:09.759Z,55.53
2018-01-21T01:10:40.690Z,55.43
2018-01-21T01:11:11.589Z,55.24
2018-01-21T01:11:42.497Z,55.19
2018-01-21T01:12:13.398Z,55.63
2018-01-21T01:12:44.310Z,55.74
2018-01-21T01:13:15.214Z,55.66
2018-01-21T01:13:46.126Z,55.44
2018-01-21T01:14:17.025Z,55.43
2018-01-21T01:14:47.926Z,55.60
2018-01-21T01:15:18.825Z,55.63
2018-01-21T01:15:49.722Z,55.42
2018-01-21T01:16:20.622Z,55.21
2018-01-21T01:16:51.522Z,55.61
2018-01-21T01:17:22.413Z,55.82
2018-01-21T01:17:53.357Z,55.73
2018-01-21T01:18:24.243Z,55.54
2018-01-21T01:18:55.137Z,55.71
2018-01-21T01:19:26.029Z,55.80
2018-01-21T01:19:56.933Z,55.69
2018-01-21T01:20:27.838Z,55.93
2018-01-21T01:20:58.802Z,55.55
2018-01-21T01:21:29.705Z,56.01
2018-01-21T01:22:00.597Z,55.85
2018-01-21T01:22:31.508Z,56.00
2018-01-21T01:23:02.430Z,56.06
2018-01-21T01:23:33.326Z,56.24
2018-01-21T01:24:04.226Z,56.15
2018-01-21T01:24:35.121Z,56.20
2018-01-21T01:25:06.017Z,56.27
2018-01-21T01:25:36.946Z,56.23
2018-01-21T01:26:07.878Z,56.28
2018-01-21T01:26:38.809Z,56.42
2018-01-21T01:27:09.701Z,56.28
2018-01-21T01:27:40.606Z,56.28
2018-01-21T01:28:11.514Z,56.42
2018-01-21T01:28:42.406Z,56.35
2018-01-21T01:29:13.314Z,56.37
2018-01-21T01:29:44.210Z,56.42
2018-01-21T01:30:15.106Z,56.53
2018-01-21T01:30:46.014Z,56.34
2018-01-21T01:31:17.073Z,56.36
2018-01-21T01:31:47.963Z,56.84
2018-01-21T01:32:25.002Z,56.51
2018-01-21T01:32:55.901Z,56.64
2018-01-21T01:33:26.798Z,56.27
2018-01-21T01:33:57.726Z,56.38
2018-01-21T01:34:28.635Z,56.49
2018-01-21T01:34:59.525Z,56.28
2018-01-21T01:35:30.413Z,56.14
2018-01-21T01:36:01.339Z,56.24
2018-01-21T01:36:32.285Z,56.32
2018-01-21T01:37:03.186Z,56.52
2018-01-21T01:37:34.118Z,56.26
2018-01-21T01:38:05.018Z,56.50
2018-01-21T01:38:35.917Z,56.49
2018-01-21T01:39:06.818Z,56.49
2018-01-21T01:39:44.737Z,56.40
2018-01-21T01:40:15.642Z,56.44
2018-01-21T01:40:46.537Z,56.53
2018-01-21T01:41:17.438Z,56.42
2018-01-21T01:41:48.377Z,56.53
2018-01-21T01:42:19.278Z,56.50
2018-01-21T01:42:50.189Z,56.32
2018-01-21T01:43:21.081Z,56.32
2018-01-21T01:43:52.017Z,56.30
2018-01-21T01:44:22.910Z,56.55
2018-01-21T01:44:53.818Z,56.32
2018-01-21T01:45:24.717Z,56.47
2018-01-21T01:45:55.609Z,56.45
2018-01-21T01:46:26.501Z,56.84
2018-01-21T01:46:57.406Z,56.92
2018-01-21T01:47:28.303Z,57.13
2018-01-21T01:47:59.198Z,56.83
2018-01-21T01:48:30.086Z,56.86
2018-01-21T01:49:01.021Z,57.22
2018-01-21T01:49:31.922Z,57.04
2018-01-21T01:50:02.854Z,56.96
2018-01-21T01:50:33.762Z,56.86
2018-01-21T01:51:04.658Z,57.08
2018-01-21T01:51:35.560Z,57.01
2018-01-21T01:52:06.469Z,57.04
2018-01-21T01:52:37.414Z,56.70
2018-01-21T01:53:08.317Z,56.97
2018-01-21T01:53:39.213Z,56.73
2018-01-21T01:54:10.158Z,56.80
2018-01-21T01:54:41.062Z,56.85
2018-01-21T01:55:11.963Z,56.63
2018-01-21T01:55:42.870Z,56.88
2018-01-21T01:56:13.770Z,56.88
2018-01-21T01:56:44.673Z,56.74
2018-01-21T01:57:15.574Z,56.57
2018-01-21T01:57:46.478Z,56.76
2018-01-21T01:58:17.372Z,56.60
2018-01-21T01:58:48.265Z,56.83
2018-01-21T01:59:19.206Z,56.33
2018-01-21T01:59:50.097Z,56.45
2018-01-21T02:00:20.986Z,56.54
2018-01-21T02:00:51.926Z,56.26
2018-01-21T02:01:22.849Z,56.41
2018-01-21T02:01:53.749Z,56.54
2018-01-21T02:02:24.638Z,56.44
2018-01-21T02:02:55.542Z,56.58
2018-01-21T02:03:26.481Z,56.30
2018-01-21T02:03:57.378Z,56.35
2018-01-21T02:04:28.269Z,56.30
2018-01-21T02:04:59.173Z,56.23
2018-01-21T02:05:30.073Z,56.21
2018-01-21T02:06:00.985Z,56.32
2018-01-21T02:06:31.894Z,56.13
2018-01-21T02:07:02.790Z,56.09
2018-01-21T02:07:33.686Z,56.18
2018-01-21T02:08:04.630Z,56.33
2018-01-21T02:08:35.595Z,56.14
2018-01-21T02:09:06.489Z,56.08
2018-01-21T02:09:37.390Z,56.42
2018-01-21T02:10:08.317Z,56.17
2018-01-21T02:10:39.218Z,56.31
2018-01-21T02:11:10.118Z,56.21
2018-01-21T02:11:40.985Z,56.16
2018-01-21T02:12:11.857Z,55.99
2018-01-21T02:12:42.720Z,56.07
2018-01-21T02:13:13.601Z,56.06
2018-01-21T02:13:44.509Z,56.17
2018-01-21T02:14:15.437Z,56.13
2018-01-21T02:14:46.309Z,56.04
2018-01-21T02:15:17.182Z,55.93
2018-01-21T02:15:48.159Z,56.33
2018-01-21T02:16:19.025Z,56.15
2018-01-21T02:16:49.893Z,56.16
2018-01-21T02:17:20.760Z,55.87
2018-01-21T02:17:51.629Z,55.81
2018-01-21T02:18:22.501Z,55.89
2018-01-21T02:18:53.357Z,55.89
2018-01-21T02:19:24.260Z,55.86
2018-01-21T02:19:55.125Z,55.85
2018-01-21T02:20:25.989Z,55.75
2018-01-21T02:20:56.857Z,55.80
2018-01-21T02:21:27.733Z,55.87
2018-01-21T02:21:58.593Z,55.77
2018-01-21T02:22:29.457Z,55.70
2018-01-21T02:23:00.329Z,55.77
2018-01-21T02:23:31.201Z,55.57
2018-01-21T02:24:02.065Z,55.59
2018-01-21T02:24:32.982Z,55.61
2018-01-21T02:25:03.929Z,55.61
2018-01-21T02:25:34.793Z,55.60
2018-01-21T02:26:05.661Z,55.58
2018-01-21T02:26:36.532Z,55.69
2018-01-21T02:27:07.413Z,55.67
2018-01-21T02:27:38.293Z,55.64
2018-01-21T02:28:09.157Z,55.72
2018-01-21T02:28:40.037Z,55.54
2018-01-21T02:29:10.904Z,55.73
2018-01-21T02:29:41.777Z,55.57
2018-01-21T02:30:12.650Z,55.68
2018-01-21T02:30:43.522Z,55.63
2018-01-21T02:31:14.389Z,55.65
2018-01-21T02:31:45.254Z,55.78
2018-01-21T02:32:16.130Z,55.75
2018-01-21T02:32:47.001Z,55.62
2018-01-21T02:33:17.873Z,55.69
2018-01-21T02:33:48.749Z,55.69
2018-01-21T02:34:19.613Z,55.73
2018-01-21T02:34:50.521Z,55.70
2018-01-21T02:35:21.396Z,55.79
2018-01-21T02:35:52.309Z,55.64
2018-01-21T02:36:23.173Z,55.68
2018-01-21T02:36:54.120Z,55.67
2018-01-21T02:37:24.989Z,55.61
2018-01-21T02:37:55.929Z,55.71
2018-01-21T02:38:26.834Z,55.68
2018-01-21T02:38:57.734Z,55.65
2018-01-21T02:39:28.629Z,55.61
2018-01-21T02:39:59.537Z,55.53
2018-01-21T02:40:30.441Z,55.55
2018-01-21T02:41:01.430Z,55.50
2018-01-21T02:41:32.342Z,55.61
2018-01-21T02:42:03.242Z,55.72
2018-01-21T02:42:34.145Z,55.45
2018-01-21T02:43:05.042Z,55.40
2018-01-21T02:43:35.950Z,55.61
2018-01-21T02:44:06.837Z,55.70
2018-01-21T02:44:37.742Z,55.78
2018-01-21T02:45:08.651Z,55.71
2018-01-21T02:45:39.549Z,55.77
2018-01-21T02:46:10.486Z,55.52
2018-01-21T02:46:41.386Z,55.52
2018-01-21T02:47:12.286Z,55.61
2018-01-21T02:47:43.182Z,55.47
2018-01-21T02:48:14.081Z,55.54
2018-01-21T02:48:44.986Z,55.83
2018-01-21T02:49:15.886Z,55.58
2018-01-21T02:49:46.825Z,55.55
2018-01-21T02:50:17.733Z,55.55
2018-01-21T02:50:48.621Z,55.45
2018-01-21T02:51:19.525Z,55.39
2018-01-21T02:51:50.430Z,55.51
2018-01-21T02:52:21.333Z,55.42
2018-01-21T02:52:52.290Z,55.58
2018-01-21T02:53:23.190Z,55.50
2018-01-21T02:53:54.081Z,55.46
2018-01-21T02:54:24.986Z,55.51
2018-01-21T02:54:55.886Z,55.43
2018-01-21T02:55:26.786Z,55.46
2018-01-21T02:55:57.687Z,55.41
2018-01-21T02:56:28.586Z,55.48
2018-01-21T02:56:59.486Z,55.44
2018-01-21T02:57:30.397Z,55.36
2018-01-21T02:58:01.346Z,55.42
2018-01-21T02:58:32.246Z,55.38
2018-01-21T02:59:03.137Z,55.47
2018-01-21T02:59:34.042Z,55.36
2018-01-21T03:00:04.951Z,55.34
2018-01-21T03:00:35.861Z,55.68
2018-01-21T03:01:06.773Z,55.69
2018-01-21T03:01:37.674Z,55.86
2018-01-21T03:02:08.578Z,55.61
2018-01-21T03:02:39.470Z,55.91
2018-01-21T03:03:10.410Z,55.71
2018-01-21T03:03:41.314Z,55.79
2018-01-21T03:04:12.218Z,55.66
2018-01-21T03:04:43.117Z,55.82
2018-01-21T03:05:14.018Z,55.79
2018-01-21T03:05:44.909Z,55.67
2018-01-21T03:06:15.802Z,55.70
2018-01-21T03:06:46.713Z,55.67
2018-01-21T03:07:17.613Z,55.64
2018-01-21T03:07:48.565Z,55.83
2018-01-21T03:08:19.518Z,55.71
2018-01-21T03:08:50.422Z,55.72
2018-01-21T03:09:21.317Z,55.87
2018-01-21T03:09:52.219Z,55.72
2018-01-21T03:10:23.118Z,55.72
2018-01-21T03:10:54.014Z,55.77
2018-01-21T03:11:24.917Z,55.71
2018-01-21T03:11:55.813Z,55.71
2018-01-21T03:12:26.706Z,55.74
2018-01-21T03:12:57.606Z,55.72
2018-01-21T03:13:28.553Z,55.62
2018-01-21T03:13:59.441Z,55.73
2018-01-21T03:14:30.341Z,55.64
2018-01-21T03:15:01.237Z,55.58
2018-01-21T03:15:32.142Z,55.59
2018-01-21T03:16:03.047Z,55.74
2018-01-21T03:16:33.958Z,55.56
2018-01-21T03:17:04.849Z,55.58
2018-01-21T03:17:35.745Z,55.59
2018-01-21T03:18:06.639Z,55.50
2018-01-21T03:18:37.583Z,55.51
2018-01-21T03:19:08.484Z,55.44
2018-01-21T03:19:39.434Z,55.59
2018-01-21T03:20:10.334Z,55.80
2018-01-21T03:20:41.225Z,55.85
2018-01-21T03:21:12.130Z,55.85
2018-01-21T03:21:43.034Z,55.76
2018-01-21T03:22:13.937Z,55.97
2018-01-21T03:22:44.833Z,55.86
2018-01-21T03:23:15.742Z,55.90
2018-01-21T03:23:46.643Z,55.74
2018-01-21T03:24:17.546Z,55.80
2018-01-21T03:24:48.482Z,55.85
2018-01-21T03:25:19.386Z,55.80
2018-01-21T03:25:50.285Z,55.79
2018-01-21T03:26:21.181Z,55.79
2018-01-21T03:26:52.090Z,55.72
2018-01-21T03:27:22.989Z,55.77
2018-01-21T03:27:53.893Z,55.83
2018-01-21T03:28:24.782Z,55.71
2018-01-21T03:28:55.678Z,55.89
2018-01-21T03:29:26.623Z,56.03
2018-01-21T03:29:57.573Z,56.06
2018-01-21T03:30:28.630Z,56.09
2018-01-21T03:30:59.536Z,56.15
2018-01-21T03:31:30.434Z,56.15
2018-01-21T03:32:01.338Z,56.16
2018-01-21T03:32:32.241Z,56.16
2018-01-21T03:33:03.146Z,56.07
2018-01-21T03:33:34.050Z,56.02
2018-01-21T03:34:04.953Z,56.16
2018-01-21T03:34:35.854Z,56.03
2018-01-21T03:35:06.798Z,56.19
2018-01-21T03:35:37.702Z,56.16
2018-01-21T03:36:08.611Z,56.11
2018-01-21T03:36:39.516Z,56.18
2018-01-21T03:37:10.410Z,56.25
2018-01-21T03:37:41.303Z,56.25
2018-01-21T03:38:12.205Z,56.12
2018-01-21T03:38:43.104Z,56.17
2018-01-21T03:39:14.022Z,55.98
2018-01-21T03:39:44.926Z,56.07
2018-01-21T03:40:15.881Z,56.05
2018-01-21T03:40:46.778Z,56.12
2018-01-21T03:41:17.687Z,56.33
2018-01-21T03:41:48.593Z,56.04
2018-01-21T03:42:19.493Z,56.21
2018-01-21T03:42:50.389Z,56.16
2018-01-21T03:43:21.289Z,56.18
2018-01-21T03:43:52.190Z,56.22
2018-01-21T03:44:23.090Z,56.15
2018-01-21T03:44:53.977Z,56.35
2018-01-21T03:45:24.965Z,56.35
2018-01-21T03:45:55.890Z,56.31
2018-01-21T03:46:26.794Z,56.07
2018-01-21T03:46:57.694Z,56.22
2018-01-21T03:47:28.593Z,56.28
2018-01-21T03:47:59.494Z,56.30
2018-01-21T03:48:30.394Z,56.25
2018-01-21T03:49:01.288Z,56.25
2018-01-21T03:49:32.190Z,56.17
2018-01-21T03:50:03.094Z,56.34
2018-01-21T03:50:34.025Z,56.19
2018-01-21T03:51:04.918Z,55.93
2018-01-21T03:51:35.814Z,55.97
2018-01-21T03:52:06.717Z,56.11
2018-01-21T03:52:37.614Z,56.17
2018-01-21T03:53:08.513Z,56.15
2018-01-21T03:53:39.426Z,56.13
2018-01-21T03:54:10.349Z,56.01
2018-01-21T03:54:41.277Z,56.05
2018-01-21T03:55:12.182Z,56.02
2018-01-21T03:55:43.130Z,56.03
2018-01-21T03:56:14.022Z,56.00
2018-01-21T03:56:44.926Z,55.96
2018-01-21T03:57:15.822Z,56.08
2018-01-21T03:57:46.721Z,55.92
2018-01-21T03:58:17.614Z,56.01
2018-01-21T03:58:48.506Z,55.94
2018-01-21T03:59:19.410Z,55.90
2018-01-21T03:59:50.309Z,55.93
2018-01-21T04:00:21.210Z,55.92
2018-01-21T04:00:52.114Z,56.07
2018-01-21T04:01:23.005Z,55.99
2018-01-21T04:01:53.910Z,55.93
2018-01-21T04:02:24.817Z,56.28
2018-01-21T04:02:55.709Z,55.92
2018-01-21T04:03:26.618Z,55.97
2018-01-21T04:03:57.513Z,55.94
2018-01-21T04:04:28.710Z,56.00
2018-01-21T04:04:59.621Z,55.81
2018-01-21T04:05:30.742Z,55.81
2018-01-21T04:06:01.634Z,55.88
2018-01-21T04:06:32.538Z,55.86
2018-01-21T04:07:03.445Z,55.97
2018-01-21T04:07:34.346Z,55.79
2018-01-21T04:08:05.246Z,55.85
2018-01-21T04:08:36.150Z,55.73
2018-01-21T04:09:07.047Z,55.90
2018-01-21T04:09:37.942Z,55.82
2018-01-21T04:10:08.854Z,55.83
2018-01-21T04:10:39.789Z,55.81
2018-01-21T04:11:10.694Z,55.89
2018-01-21T04:11:41.658Z,55.87
2018-01-21T04:12:12.565Z,55.73
2018-01-21T04:12:43.460Z,55.85
2018-01-21T04:13:14.362Z,55.75
2018-01-21T04:13:45.262Z,55.76
2018-01-21T04:14:16.150Z,55.79
2018-01-21T04:14:47.050Z,55.77
2018-01-21T04:15:17.966Z,55.78
2018-01-21T04:15:48.865Z,55.78
2018-01-21T04:16:19.762Z,55.85
2018-01-21T04:16:50.701Z,55.74
2018-01-21T04:17:21.593Z,55.76
2018-01-21T04:17:52.494Z,55.87
2018-01-21T04:18:23.398Z,55.72
2018-01-21T04:18:54.297Z,55.82
2018-01-21T04:19:25.244Z,55.76
2018-01-21T04:19:56.141Z,55.80
2018-01-21T04:20:27.042Z,55.86
2018-01-21T04:20:57.936Z,55.90
2018-01-21T04:21:28.834Z,55.77
2018-01-21T04:21:59.722Z,55.77
2018-01-21T04:22:30.665Z,55.78
2018-01-21T04:23:01.606Z,55.70
2018-01-21T04:23:32.552Z,55.72
2018-01-21T04:24:03.457Z,55.74
2018-01-21T04:24:34.362Z,55.80
2018-01-21T04:25:05.259Z,55.72
2018-01-21T04:25:36.158Z,55.79
2018-01-21T04:26:07.058Z,55.78
2018-01-21T04:26:38.014Z,55.75
2018-01-21T04:27:08.905Z,55.69
2018-01-21T04:27:39.814Z,55.70
2018-01-21T04:28:10.713Z,55.73
2018-01-21T04:28:41.614Z,55.83
2018-01-21T04:29:12.518Z,55.71
2018-01-21T04:29:43.414Z,55.68
2018-01-21T04:30:14.301Z,55.70
2018-01-21T04:30:45.209Z,55.78
2018-01-21T04:31:16.109Z,55.76
2018-01-21T04:31:47.054Z,55.72
2018-01-21T04:32:17.962Z,55.70
2018-01-21T04:32:48.862Z,55.67
2018-01-21T04:33:19.753Z,55.69
2018-01-21T04:33:50.719Z,55.72
2018-01-21T04:34:21.626Z,55.75
2018-01-21T04:34:52.522Z,55.69
2018-01-21T04:35:23.409Z,55.77
2018-01-21T04:35:54.305Z,55.79
2018-01-21T04:36:25.201Z,55.87
2018-01-21T04:36:56.097Z,55.82
2018-01-21T04:37:26.994Z,55.71
2018-01-21T04:37:57.893Z,55.82
2018-01-21T04:38:28.806Z,55.90
2018-01-21T04:38:59.749Z,55.79
2018-01-21T04:39:30.637Z,55.77
2018-01-21T04:40:01.541Z,55.77
2018-01-21T04:40:32.441Z,55.75
2018-01-21T04:41:03.369Z,56.23
2018-01-21T04:41:34.265Z,55.94
2018-01-21T04:42:05.169Z,55.95
2018-01-21T04:42:36.053Z,55.85
2018-01-21T04:43:06.945Z,55.83
2018-01-21T04:43:37.850Z,56.02
2018-01-21T04:44:08.749Z,55.99
2018-01-21T04:44:39.637Z,55.95
2018-01-21T04:45:10.537Z,55.99
2018-01-21T04:45:41.433Z,55.95
2018-01-21T04:46:12.378Z,55.87
2018-01-21T04:46:43.265Z,56.02
2018-01-21T04:47:14.162Z,56.06
2018-01-21T04:47:45.058Z,55.96
2018-01-21T04:48:15.966Z,56.14
2018-01-21T04:48:46.854Z,56.07
2018-01-21T04:49:17.753Z,56.34
2018-01-21T04:49:48.702Z,56.09
2018-01-21T04:50:19.610Z,56.19
2018-01-21T04:50:50.517Z,56.13
2018-01-21T04:51:21.422Z,56.27
2018-01-21T04:51:52.322Z,56.27
2018-01-21T04:52:23.235Z,56.30
2018-01-21T04:52:54.146Z,56.23
2018-01-21T04:53:25.041Z,56.07
2018-01-21T04:53:55.942Z,56.30
2018-01-21T04:54:26.853Z,56.42
2018-01-21T04:54:57.790Z,56.41
2018-01-21T04:55:28.685Z,56.39
2018-01-21T04:55:59.585Z,56.38
2018-01-21T04:56:30.519Z,56.55
2018-01-21T04:57:01.422Z,56.47
2018-01-21T04:57:32.337Z,56.41
2018-01-21T04:58:03.238Z,56.43
2018-01-21T04:58:34.137Z,56.50
2018-01-21T04:59:05.034Z,56.42
2018-01-21T04:59:35.938Z,56.47
2018-01-21T05:00:06.841Z,56.52
2018-01-21T05:00:37.735Z,56.52
2018-01-21T05:01:08.677Z,56.52
2018-01-21T05:01:39.586Z,56.53
2018-01-21T05:02:10.478Z,56.59
2018-01-21T05:02:41.417Z,56.47
2018-01-21T05:03:12.322Z,56.51
2018-01-21T05:03:43.219Z,56.40
2018-01-21T05:04:14.113Z,56.40
2018-01-21T05:04:45.004Z,56.47
2018-01-21T05:05:15.905Z,56.50
2018-01-21T05:05:46.845Z,56.53
2018-01-21T05:06:17.753Z,56.40
2018-01-21T05:06:48.657Z,56.46
2018-01-21T05:07:19.553Z,56.51
2018-01-21T05:07:50.461Z,56.49
2018-01-21T05:08:21.370Z,56.55
2018-01-21T05:08:52.269Z,56.48
2018-01-21T05:09:23.178Z,56.41
2018-01-21T05:09:54.073Z,56.33
2018-01-21T05:10:24.974Z,56.77
2018-01-21T05:10:55.910Z,56.60
2018-01-21T05:11:26.813Z,56.61
2018-01-21T05:11:57.705Z,56.55
2018-01-21T05:12:28.605Z,56.79
2018-01-21T05:12:59.518Z,56.77
2018-01-21T05:13:30.474Z,56.78
2018-01-21T05:14:01.378Z,56.62
2018-01-21T05:14:32.278Z,56.54
2018-01-21T05:15:03.169Z,56.58
2018-01-21T05:15:34.074Z,56.60
2018-01-21T05:16:04.978Z,56.53
2018-01-21T05:16:35.867Z,56.61
2018-01-21T05:17:06.767Z,56.62
2018-01-21T05:17:37.665Z,56.57
2018-01-21T05:18:08.557Z,56.58
2018-01-21T05:18:39.525Z,56.63
2018-01-21T05:19:10.423Z,56.54
2018-01-21T05:19:41.326Z,56.49
2018-01-21T05:20:12.225Z,56.55
2018-01-21T05:20:43.129Z,56.48
2018-01-21T05:21:14.026Z,56.41
2018-01-21T05:21:44.926Z,56.51
2018-01-21T05:22:15.822Z,56.36
2018-01-21T05:22:46.710Z,56.44
2018-01-21T05:23:17.613Z,56.32
2018-01-21T05:23:48.545Z,56.34
2018-01-21T05:24:19.441Z,56.43
2018-01-21T05:24:50.345Z,56.43
2018-01-21T05:25:21.242Z,56.47
2018-01-21T05:25:52.133Z,56.49
2018-01-21T05:26:23.029Z,56.45
2018-01-21T05:26:53.934Z,56.34
2018-01-21T05:27:24.829Z,56.37
2018-01-21T05:27:55.734Z,56.29
2018-01-21T05:28:26.665Z,56.35
2018-01-21T05:28:57.570Z,56.22
2018-01-21T05:29:28.457Z,56.26
2018-01-21T05:29:59.356Z,56.37
2018-01-21T05:30:30.262Z,56.34
2018-01-21T05:31:01.165Z,56.28
2018-01-21T05:31:32.065Z,56.18
2018-01-21T05:32:02.978Z,56.29
2018-01-21T05:32:33.882Z,56.30
2018-01-21T05:33:04.821Z,56.32
2018-01-21T05:33:35.726Z,56.38
2018-01-21T05:34:06.626Z,56.34
2018-01-21T05:34:37.533Z,56.31
2018-01-21T05:35:08.425Z,56.26
2018-01-21T05:35:39.313Z,56.39
2018-01-21T05:36:10.209Z,56.24
2018-01-21T05:36:41.102Z,56.24
2018-01-21T05:37:11.998Z,56.24
2018-01-21T05:37:42.902Z,56.23
2018-01-21T05:38:13.849Z,56.16
2018-01-21T05:38:44.749Z,56.20
2018-01-21T05:39:15.641Z,56.20
2018-01-21T05:39:46.535Z,56.19
2018-01-21T05:40:17.473Z,56.12
2018-01-21T05:40:48.413Z,56.17
2018-01-21T05:41:19.317Z,56.16
2018-01-21T05:41:50.221Z,56.28
2018-01-21T05:42:21.126Z,56.19
2018-01-21T05:42:52.017Z,56.17
2018-01-21T05:43:22.901Z,56.34
2018-01-21T05:43:53.793Z,56.28
2018-01-21T05:44:24.685Z,56.16
2018-01-21T05:44:55.637Z,56.10
2018-01-21T05:45:26.534Z,56.14
2018-01-21T05:45:57.434Z,56.21
2018-01-21T05:46:28.338Z,56.16
2018-01-21T05:46:59.242Z,56.22
2018-01-21T05:47:30.157Z,56.16
2018-01-21T05:48:01.057Z,56.19
2018-01-21T05:48:31.998Z,56.13
2018-01-21T05:49:02.950Z,56.18
2018-01-21T05:49:33.846Z,56.19
2018-01-21T05:50:04.778Z,56.06
2018-01-21T05:50:35.673Z,56.16
2018-01-21T05:51:06.609Z,56.09
2018-01-21T05:51:37.518Z,56.19
2018-01-21T05:52:08.494Z,56.10
2018-01-21T05:52:39.393Z,56.15
2018-01-21T05:53:10.291Z,56.08
2018-01-21T05:53:41.199Z,56.04
2018-01-21T05:54:12.106Z,56.13
2018-01-21T05:54:43.054Z,56.01
2018-01-21T05:55:13.969Z,55.98
2018-01-21T05:55:44.865Z,56.07
2018-01-21T05:56:15.769Z,56.09
2018-01-21T05:56:46.658Z,56.08
2018-01-21T05:57:17.558Z,56.02
2018-01-21T05:57:48.505Z,56.06
2018-01-21T05:58:19.417Z,56.01
2018-01-21T05:58:50.317Z,56.11
2018-01-21T05:59:21.221Z,56.08
2018-01-21T05:59:52.130Z,56.10
2018-01-21T06:00:23.041Z,56.10
2018-01-21T06:00:53.937Z,56.12
2018-01-21T06:01:24.829Z,56.06
2018-01-21T06:01:55.730Z,56.10
2018-01-21T06:02:26.629Z,56.08
2018-01-21T06:02:57.533Z,56.04
2018-01-21T06:03:28.434Z,56.05
2018-01-21T06:03:59.377Z,56.16
2018-01-21T06:04:30.268Z,56.04
2018-01-21T06:05:01.166Z,56.07
2018-01-21T06:05:32.066Z,55.96
2018-01-21T06:06:02.966Z,55.93
2018-01-21T06:06:33.855Z,56.03
2018-01-21T06:07:04.764Z,56.18
2018-01-21T06:07:35.702Z,56.10
2018-01-21T06:08:06.602Z,56.09
2018-01-21T06:08:37.510Z,56.06
2018-01-21T06:09:08.416Z,56.13
2018-01-21T06:09:39.313Z,56.04
2018-01-21T06:10:10.210Z,56.06
2018-01-21T06:10:41.126Z,56.28
2018-01-21T06:11:12.018Z,56.11
2018-01-21T06:11:42.914Z,56.14
2018-01-21T06:12:13.817Z,56.16
2018-01-21T06:12:44.717Z,56.28
2018-01-21T06:13:15.613Z,56.28
2018-01-21T06:13:46.518Z,56.33
2018-01-21T06:14:17.413Z,56.36
2018-01-21T06:14:48.341Z,56.22
2018-01-21T06:15:19.253Z,56.18
2018-01-21T06:15:50.158Z,56.26
2018-01-21T06:16:21.095Z,56.30
2018-01-21T06:16:52.003Z,56.35
2018-01-21T06:17:22.902Z,56.35
2018-01-21T06:17:53.802Z,56.36
2018-01-21T06:18:24.706Z,56.31
2018-01-21T06:18:55.665Z,56.21
2018-01-21T06:19:26.613Z,56.17
2018-01-21T06:19:57.557Z,56.13
2018-01-21T06:20:28.485Z,56.24
2018-01-21T06:20:59.421Z,56.15
2018-01-21T06:21:30.319Z,56.30
2018-01-21T06:22:01.226Z,56.38
2018-01-21T06:22:32.174Z,56.72
2018-01-21T06:23:03.063Z,56.63
2018-01-21T06:23:33.999Z,56.76
2018-01-21T06:24:04.902Z,56.90
2018-01-21T06:24:35.806Z,56.82
2018-01-21T06:25:06.693Z,56.92
2018-01-21T06:25:37.594Z,56.93
2018-01-21T06:26:08.490Z,56.96
2018-01-21T06:26:39.389Z,56.92
2018-01-21T06:27:10.288Z,56.90
2018-01-21T06:27:41.185Z,56.83
2018-01-21T06:28:12.086Z,56.87
2018-01-21T06:28:42.990Z,56.86
2018-01-21T06:29:13.890Z,56.90
2018-01-21T06:29:44.782Z,56.87
2018-01-21T06:30:15.683Z,56.89
2018-01-21T06:30:46.614Z,56.86
2018-01-21T06:31:17.514Z,56.97
2018-01-21T06:31:48.414Z,56.94
2018-01-21T06:32:19.318Z,57.05
2018-01-21T06:32:50.209Z,56.97
2018-01-21T06:33:21.110Z,57.00
2018-01-21T06:33:52.049Z,57.10
2018-01-21T06:34:22.949Z,57.11
2018-01-21T06:34:53.886Z,57.19
2018-01-21T06:35:24.793Z,57.09
2018-01-21T06:35:55.698Z,57.02
2018-01-21T06:36:26.597Z,57.12
2018-01-21T06:36:57.545Z,57.07
2018-01-21T06:37:28.438Z,57.07
2018-01-21T06:37:59.335Z,57.13